createdAt,value
2022-09-23T00:01:25.246Z,8.85
2022-09-23T00:06:28.161Z,8.80
2022-09-23T00:11:29.845Z,8.77
2022-09-23T00:16:34.167Z,8.73
2022-09-23T00:21:35.999Z,8.66
2022-09-23T00:26:37.610Z,8.59
2022-09-23T00:31:39.220Z,8.60
2022-09-23T00:36:40.939Z,8.55
2022-09-23T00:41:42.597Z,8.49
2022-09-23T00:46:44.215Z,8.41
2022-09-23T00:51:50.722Z,8.36
2022-09-23T00:56:52.347Z,8.34
2022-09-23T01:01:54.836Z,8.32
2022-09-23T01:06:56.472Z,8.32
2022-09-23T01:12:17.475Z,8.29
2022-09-23T01:17:36.626Z,8.25
2022-09-23T01:22:53.140Z,8.26
2022-09-23T01:28:03.829Z,8.24
2022-09-23T01:33:27.575Z,8.20
2022-09-23T01:38:29.011Z,8.18
2022-09-23T01:43:30.823Z,8.10
2022-09-23T01:48:45.656Z,8.08
2022-09-23T01:54:04.047Z,7.95
2022-09-23T01:59:11.513Z,7.91
2022-09-23T02:04:18.481Z,7.86
2022-09-23T02:09:24.822Z,7.81
2022-09-23T02:14:36.314Z,7.80
2022-09-23T02:19:48.551Z,7.80
2022-09-23T02:24:50.161Z,7.81
2022-09-23T02:30:09.508Z,7.83
2022-09-23T02:35:32.825Z,7.83
2022-09-23T02:41:04.664Z,7.82
2022-09-23T02:46:06.434Z,7.81
2022-09-23T02:51:08.510Z,7.81
2022-09-23T02:56:15.076Z,7.78
2022-09-23T03:01:54.362Z,7.73
2022-09-23T03:07:08.063Z,7.70
2022-09-23T03:12:20.172Z,7.71
2022-09-23T03:17:34.815Z,7.71
2022-09-23T03:22:47.076Z,7.72
2022-09-23T03:27:48.726Z,7.72
2022-09-23T03:32:51.294Z,7.73
2022-09-23T03:37:55.330Z,7.74
2022-09-23T03:42:57.102Z,7.74
2022-09-23T03:47:58.701Z,7.71
2022-09-23T03:53:00.830Z,7.69
2022-09-23T03:58:04.750Z,7.67
2022-09-23T04:03:11.460Z,7.59
2022-09-23T04:08:13.403Z,7.55
2022-09-23T04:13:14.977Z,7.51
2022-09-23T04:18:16.578Z,7.48
2022-09-23T04:23:18.195Z,7.42
2022-09-23T04:28:20.352Z,7.35
2022-09-23T04:33:21.967Z,7.28
2022-09-23T04:38:23.579Z,7.24
2022-09-23T04:43:25.184Z,7.21
2022-09-23T04:48:27.169Z,7.17
2022-09-23T04:53:29.257Z,7.13
2022-09-23T04:58:30.928Z,7.08
2022-09-23T05:03:35.601Z,7.04
2022-09-23T05:08:37.207Z,7.03
2022-09-23T05:13:38.828Z,7.03
2022-09-23T05:18:42.608Z,7.03
2022-09-23T05:23:47.912Z,7.01
2022-09-23T05:28:49.670Z,7.01
2022-09-23T05:33:52.837Z,7.00
2022-09-23T05:38:56.456Z,7.01
2022-09-23T05:43:59.627Z,7.00
2022-09-23T05:49:03.517Z,7.05
2022-09-23T05:54:05.658Z,7.10
2022-09-23T05:59:07.590Z,7.19
2022-09-23T06:04:11.794Z,7.25
2022-09-23T06:09:14.297Z,7.35
2022-09-23T06:14:16.045Z,7.45
2022-09-23T06:19:17.680Z,7.58
2022-09-23T06:24:22.954Z,7.74
2022-09-23T06:29:26.512Z,7.98
2022-09-23T06:34:28.223Z,8.15
2022-09-23T06:39:30.042Z,8.27
2022-09-23T06:44:31.666Z,8.42
2022-09-23T06:49:33.873Z,8.55
2022-09-23T06:54:35.705Z,8.70
2022-09-23T06:59:37.376Z,8.85
2022-09-23T07:04:38.989Z,9.00
2022-09-23T07:09:40.632Z,9.13
2022-09-23T07:14:42.257Z,9.26
2022-09-23T07:19:44.001Z,9.37
2022-09-23T07:24:46.556Z,9.44
2022-09-23T07:29:49.104Z,9.50
2022-09-23T07:34:51.123Z,9.58
2022-09-23T07:39:52.780Z,9.73
2022-09-23T07:44:56.727Z,9.81
2022-09-23T07:49:58.331Z,9.90
2022-09-23T07:54:59.961Z,10.02
2022-09-23T08:00:02.360Z,10.15
2022-09-23T08:05:13.339Z,10.28
2022-09-23T08:10:19.057Z,10.43
2022-09-23T08:15:20.665Z,10.53
2022-09-23T08:20:43.681Z,10.69
2022-09-23T08:25:48.228Z,10.84
2022-09-23T08:30:49.895Z,10.98
2022-09-23T08:35:51.914Z,11.09
2022-09-23T08:40:55.607Z,11.25
2022-09-23T08:45:58.710Z,11.44
2022-09-23T08:51:05.483Z,11.64
2022-09-23T08:56:17.234Z,11.92
2022-09-23T09:01:44.231Z,12.25
2022-09-23T09:06:52.968Z,12.52
2022-09-23T09:12:43.824Z,12.79
2022-09-23T09:18:21.331Z,13.08
2022-09-23T09:23:24.652Z,13.26
2022-09-23T09:28:48.364Z,13.43
2022-09-23T09:33:57.800Z,13.64
2022-09-23T09:38:59.578Z,13.84
2022-09-23T09:44:03.431Z,14.07
2022-09-23T09:49:23.072Z,14.20
2022-09-23T09:54:25.905Z,14.44
2022-09-23T09:59:28.015Z,14.62
2022-09-23T10:04:33.832Z,14.70
2022-09-23T10:09:36.638Z,14.92
2022-09-23T10:14:38.281Z,14.97
2022-09-23T10:19:39.906Z,15.13
2022-09-23T10:24:42.198Z,15.21
2022-09-23T10:29:46.673Z,15.55
2022-09-23T10:35:03.302Z,15.89
2022-09-23T10:40:36.823Z,16.02
2022-09-23T10:46:00.322Z,16.23
2022-09-23T10:51:05.614Z,16.47
2022-09-23T10:56:31.940Z,16.59
2022-09-23T11:01:44.000Z,16.56
2022-09-23T11:07:14.035Z,16.74
2022-09-23T11:12:44.651Z,16.99
2022-09-23T11:17:56.782Z,17.22
2022-09-23T11:23:40.358Z,17.25
2022-09-23T11:28:55.638Z,17.40
2022-09-23T11:34:34.320Z,17.61
2022-09-23T11:39:39.740Z,17.71
2022-09-23T11:44:43.762Z,17.90
2022-09-23T11:50:00.227Z,17.84
2022-09-23T11:55:23.037Z,17.84
2022-09-23T12:00:26.601Z,17.94
2022-09-23T12:05:31.543Z,18.20
2022-09-23T12:10:51.636Z,18.46
2022-09-23T12:16:03.569Z,18.81
2022-09-23T12:21:46.326Z,19.19
2022-09-23T12:26:53.495Z,19.73
2022-09-23T12:31:55.567Z,20.16
2022-09-23T12:37:03.982Z,20.60
2022-09-23T12:42:10.780Z,20.02
2022-09-23T12:47:15.261Z,19.97
2022-09-23T12:52:16.697Z,19.68
2022-09-23T12:57:33.543Z,19.65
2022-09-23T13:02:37.297Z,19.69
2022-09-23T13:07:42.692Z,19.70
2022-09-23T13:12:44.349Z,19.49
2022-09-23T13:17:45.950Z,19.31
2022-09-23T13:22:51.748Z,19.22
2022-09-23T13:27:55.438Z,19.16
2022-09-23T13:33:14.359Z,19.08
2022-09-23T13:38:26.099Z,18.93
2022-09-23T13:43:41.493Z,18.89
2022-09-23T13:48:44.266Z,18.91
2022-09-23T13:53:51.750Z,18.98
2022-09-23T13:58:53.528Z,18.92
2022-09-23T14:03:55.159Z,18.87
2022-09-23T14:08:56.836Z,18.83
2022-09-23T14:13:58.446Z,18.85
2022-09-23T14:19:00.076Z,18.84
2022-09-23T14:24:20.847Z,18.75
2022-09-23T14:29:26.972Z,18.71
2022-09-23T14:34:41.576Z,18.69
2022-09-23T14:39:43.179Z,18.59
2022-09-23T14:44:44.826Z,18.43
2022-09-23T14:50:09.652Z,18.44
2022-09-23T14:55:15.895Z,18.43
2022-09-23T15:00:18.927Z,18.34
2022-09-23T15:05:22.138Z,18.28
2022-09-23T15:10:28.653Z,18.19
2022-09-23T15:15:30.263Z,18.10
2022-09-23T15:20:31.974Z,17.99
2022-09-23T15:25:35.527Z,17.90
2022-09-23T15:30:38.114Z,17.87
2022-09-23T15:35:40.870Z,17.84
2022-09-23T15:40:42.531Z,17.77
2022-09-23T15:45:55.806Z,17.69
2022-09-23T15:50:58.422Z,17.66
2022-09-23T15:56:00.431Z,17.59
2022-09-23T16:01:02.149Z,17.52
2022-09-23T16:06:06.133Z,17.42
2022-09-23T16:11:24.059Z,17.32
2022-09-23T16:16:27.702Z,17.29
2022-09-23T16:21:29.463Z,17.24
2022-09-23T16:26:32.737Z,17.16
2022-09-23T16:31:36.112Z,17.10
2022-09-23T16:36:40.376Z,17.02
2022-09-23T16:41:43.383Z,16.91
2022-09-23T16:46:45.006Z,16.81
2022-09-23T16:51:46.641Z,16.70
2022-09-23T16:56:48.259Z,16.57
2022-09-23T17:02:08.224Z,16.44
2022-09-23T17:07:10.168Z,16.30
2022-09-23T17:12:15.728Z,16.19
2022-09-23T17:17:17.567Z,16.06
2022-09-23T17:22:19.169Z,15.94
2022-09-23T17:27:21.354Z,15.80
2022-09-23T17:32:22.946Z,15.74
2022-09-23T17:37:24.566Z,15.68
2022-09-23T17:42:26.182Z,15.61
2022-09-23T17:47:27.784Z,15.55
2022-09-23T17:52:29.383Z,15.48
2022-09-23T17:57:30.991Z,15.39
2022-09-23T18:02:32.773Z,15.27
2022-09-23T18:07:34.417Z,15.18
2022-09-23T18:12:36.009Z,15.09
2022-09-23T18:17:37.627Z,15.00
2022-09-23T18:22:39.226Z,14.93
2022-09-23T18:27:40.930Z,14.86
2022-09-23T18:32:43.022Z,14.80
2022-09-23T18:37:44.649Z,14.70
2022-09-23T18:42:46.376Z,14.63
2022-09-23T18:48:06.535Z,14.60
2022-09-23T18:53:08.403Z,14.58
2022-09-23T18:58:12.018Z,14.53
2022-09-23T19:03:13.638Z,14.49
2022-09-23T19:08:15.240Z,14.46
2022-09-23T19:13:16.841Z,14.41
2022-09-23T19:18:20.252Z,14.38
2022-09-23T19:23:21.856Z,14.33
2022-09-23T19:28:23.582Z,14.30
2022-09-23T19:33:25.189Z,14.25
2022-09-23T19:38:27.996Z,14.21
2022-09-23T19:43:29.649Z,14.18
2022-09-23T19:48:31.283Z,14.15
2022-09-23T19:53:32.902Z,14.10
2022-09-23T19:58:35.436Z,14.06
2022-09-23T20:03:37.051Z,14.02
2022-09-23T20:08:38.723Z,13.94
2022-09-23T20:13:40.539Z,13.91
2022-09-23T20:18:42.457Z,13.90
2022-09-23T20:23:44.057Z,13.87
2022-09-23T20:28:45.703Z,13.85
2022-09-23T20:33:56.139Z,13.80
2022-09-23T20:38:59.626Z,13.75
2022-09-23T20:44:02.233Z,13.68
2022-09-23T20:49:03.844Z,13.62
2022-09-23T20:54:05.454Z,13.60
2022-09-23T20:59:07.110Z,13.56
2022-09-23T21:04:09.635Z,13.52
2022-09-23T21:09:11.403Z,13.51
2022-09-23T21:14:13.035Z,13.49
2022-09-23T21:19:14.717Z,13.47
2022-09-23T21:24:45.656Z,13.50
2022-09-23T21:29:39.153Z,13.50
2022-09-23T21:34:40.750Z,13.48
2022-09-23T21:40:02.332Z,13.45
2022-09-23T21:45:05.107Z,13.36
2022-09-23T21:50:07.289Z,13.28
2022-09-23T21:55:08.912Z,13.17
2022-09-23T22:00:11.353Z,13.10
2022-09-23T22:05:12.968Z,13.07
2022-09-23T22:10:14.590Z,13.05
2022-09-23T22:15:20.302Z,13.02
2022-09-23T22:20:22.562Z,12.99
2022-09-23T22:25:24.373Z,13.00
2022-09-23T22:30:44.339Z,12.97
2022-09-23T22:35:46.377Z,12.99
2022-09-23T22:40:47.996Z,12.98
2022-09-23T22:45:50.839Z,12.98
2022-09-23T22:50:52.459Z,12.99
2022-09-23T22:56:00.048Z,12.97
2022-09-23T23:01:02.419Z,12.94
2022-09-23T23:06:04.127Z,12.92
2022-09-23T23:11:10.049Z,12.91
2022-09-23T23:16:12.309Z,12.88
2022-09-23T23:21:15.770Z,12.86
2022-09-23T23:26:21.854Z,12.89
2022-09-23T23:31:25.382Z,12.88
2022-09-23T23:36:27.049Z,12.90
2022-09-23T23:41:28.711Z,12.87
2022-09-23T23:46:30.852Z,12.87
2022-09-23T23:51:32.489Z,12.86
2022-09-23T23:56:34.115Z,12.86
